Time;durP1;ratioP1;P1;durP2;ratioP2;P2;SDS_P1;SDS_P2;PMS_P1;PMS_P2;Temp;Humidity;BMP_temperature;BMP_pressure;BME280_temperature;BME280_humidity;BME280_pressure;Samples;Min_cycle;Max_cycle;Signal;HPM_P1;HPM_P2
2021/03/19 00:01:16;;;;;;;1;0.9;;;;;;;-0.55;73.79199;936.5052;;;;
2021/03/19 00:03:41;;;;;;;1.6;1.2;;;;;;;-0.47;73.90527;936.52;;;;
2021/03/19 00:06:07;;;;;;;2.1;1.4;;;;;;;-0.38;74.07715;936.5438;;;;
2021/03/19 00:08:32;;;;;;;1.4;1;;;;;;;-0.31;74.50098;936.5784;;;;
2021/03/19 00:11:02;;;;;;;1.7;1.3;;;;;;;-0.37;74.89258;936.5076;;;;
2021/03/19 00:13:27;;;;;;;1.3;1.1;;;;;;;-0.42;75.62793;936.4339;;;;
2021/03/19 00:16:04;;;;;;;1.8;0.9;;;;;;;-0.46;75.69922;936.5627;;;;
2021/03/19 00:18:29;;;;;;;1.3;1;;;;;;;-0.72;76.29785;936.5313;;;;
2021/03/19 00:21:00;;;;;;;3.9;1.3;;;;;;;-0.7;76.8125;936.5295;;;;
2021/03/19 00:23:31;;;;;;;1.5;1.3;;;;;;;-0.62;76.39355;936.5119;;;;
2021/03/19 00:25:59;;;;;;;1.6;1.2;;;;;;;-0.72;75.78418;936.4529;;;;
2021/03/19 00:28:25;;;;;;;1.5;1.1;;;;;;;-0.79;76.25098;936.3684;;;;
2021/03/19 00:30:50;;;;;;;2.8;1.4;;;;;;;-0.8;76.22754;936.4752;;;;
2021/03/19 00:33:15;;;;;;;2.8;1.4;;;;;;;-0.85;76.17285;936.4425;;;;
2021/03/19 00:35:42;;;;;;;1.9;1;;;;;;;-0.92;76.15039;936.4517;;;;
2021/03/19 00:38:07;;;;;;;1.3;0.9;;;;;;;-0.92;76.00391;936.4023;;;;
2021/03/19 00:40:33;;;;;;;1.7;1.6;;;;;;;-0.97;76.34082;936.4093;;;;
2021/03/19 00:42:58;;;;;;;2.6;1.7;;;;;;;-0.98;76.16113;936.4231;;;;
2021/03/19 00:45:24;;;;;;;3.4;1.4;;;;;;;-0.84;76.02051;936.3791;;;;
2021/03/19 00:47:50;;;;;;;1.2;1.1;;;;;;;-0.81;75.0127;936.3372;;;;
2021/03/19 00:50:17;;;;;;;2.3;1.4;;;;;;;-0.87;74.90234;936.3917;;;;
2021/03/19 00:52:41;;;;;;;1;0.9;;;;;;;-0.84;75.19629;936.3742;;;;
2021/03/19 00:55:09;;;;;;;4.1;1.5;;;;;;;-0.82;75.52344;936.4146;;;;
2021/03/19 00:57:34;;;;;;;0.7;0.7;;;;;;;-0.79;75.53027;936.4381;;;;
2021/03/19 00:59:59;;;;;;;1;0.9;;;;;;;-0.7;75;936.4188;;;;
2021/03/19 01:02:24;;;;;;;1;0.9;;;;;;;-0.61;74.62695;936.3997;;;;
2021/03/19 01:04:50;;;;;;;2.7;1.4;;;;;;;-0.57;74.63281;936.3695;;;;
2021/03/19 01:07:15;;;;;;;1.9;1.4;;;;;;;-0.58;75;936.3661;;;;
2021/03/19 01:09:42;;;;;;;2.9;1.2;;;;;;;-0.72;74.67383;936.3209;;;;
2021/03/19 01:12:07;;;;;;;4.1;1.9;;;;;;;-0.82;74.94531;936.3198;;;;
2021/03/19 01:14:32;;;;;;;2.3;1.4;;;;;;;-0.98;75.26074;936.2903;;;;
2021/03/19 01:17:08;;;;;;;1.1;1;;;;;;;-0.98;75.2832;936.2994;;;;
2021/03/19 01:19:33;;;;;;;1.9;1.2;;;;;;;-1.06;75.12402;936.2595;;;;
2021/03/19 01:21:58;;;;;;;3.6;1.6;;;;;;;-1.09;75.30859;936.2205;;;;
2021/03/19 01:24:25;;;;;;;1.4;1;;;;;;;-1.22;75.60742;936.1506;;;;
2021/03/19 01:26:51;;;;;;;1.6;1;;;;;;;-1.52;76.56445;936.267;;;;
2021/03/19 01:29:20;;;;;;;3.1;1.8;;;;;;;-1.63;76.90918;936.2067;;;;
2021/03/19 01:31:44;;;;;;;1.7;1.3;;;;;;;-1.83;77.31641;936.1992;;;;
2021/03/19 01:34:09;;;;;;;3.2;1.3;;;;;;;-1.84;77.50293;936.1536;;;;
2021/03/19 01:36:38;;;;;;;2.2;1.4;;;;;;;-1.83;77.81543;936.178;;;;
2021/03/19 01:39:03;;;;;;;1.5;1.3;;;;;;;-1.83;77.34961;936.103;;;;
2021/03/19 01:41:31;;;;;;;1.2;1.1;;;;;;;-1.84;77.52539;935.9936;;;;
2021/03/19 01:43:56;;;;;;;3.1;1;;;;;;;-1.66;77.24805;936.0334;;;;
2021/03/19 01:47:15;;;;;;;2;1.6;;;;;;;-1.59;76.9043;936.0687;;;;
2021/03/19 01:49:40;;;;;;;5.5;1.1;;;;;;;-1.65;76.61719;936.0753;;;;
2021/03/19 01:52:05;;;;;;;4.6;1.6;;;;;;;-1.78;77.26953;936.0598;;;;
2021/03/19 01:54:47;;;;;;;3.6;1.5;;;;;;;-1.78;77.50195;936.0684;;;;
2021/03/19 01:57:16;;;;;;;3.3;1.8;;;;;;;-1.77;77.32617;936.0488;;;;
2021/03/19 01:59:44;;;;;;;1.7;1.1;;;;;;;-1.85;77.49023;936.0178;;;;
2021/03/19 02:02:10;;;;;;;1.2;1;;;;;;;-1.83;77.68262;936.0203;;;;
2021/03/19 02:04:34;;;;;;;2.2;1.4;;;;;;;-1.81;77.25293;935.9792;;;;
2021/03/19 02:07:03;;;;;;;1.5;1.2;;;;;;;-1.81;77.21875;935.9689;;;;
2021/03/19 02:09:28;;;;;;;2.4;1.3;;;;;;;-1.92;77.11133;935.9963;;;;
2021/03/19 02:11:53;;;;;;;1.8;1;;;;;;;-1.94;77.36328;935.94;;;;
2021/03/19 02:14:19;;;;;;;1.5;1.4;;;;;;;-1.98;77.38965;935.9356;;;;
2021/03/19 02:16:56;;;;;;;1.4;0.9;;;;;;;-2.16;77.67578;935.9124;;;;
2021/03/19 02:19:21;;;;;;;1.6;1.1;;;;;;;-2.17;78.10645;935.8981;;;;
2021/03/19 02:21:51;;;;;;;3.4;1.1;;;;;;;-2.16;77.98633;935.9015;;;;
2021/03/19 02:24:16;;;;;;;1.2;1;;;;;;;-2.12;77.99512;935.7869;;;;
2021/03/19 02:26:41;;;;;;;0.7;0.7;;;;;;;-2.22;78.20703;935.8622;;;;
2021/03/19 02:29:06;;;;;;;2.5;1.9;;;;;;;-2.14;78.28906;935.8645;;;;
2021/03/19 02:31:31;;;;;;;1.7;1.1;;;;;;;-2.16;78.31934;935.8011;;;;
2021/03/19 02:33:57;;;;;;;1.4;1.3;;;;;;;-2.18;78.44824;935.8159;;;;
2021/03/19 02:36:29;;;;;;;1.4;0.8;;;;;;;-2.22;78.40723;935.824;;;;
2021/03/19 02:38:57;;;;;;;1.3;1.1;;;;;;;-2.14;78.32422;935.8015;;;;
2021/03/19 02:41:22;;;;;;;3.1;1.4;;;;;;;-2.23;77.94141;935.7855;;;;
2021/03/19 02:43:50;;;;;;;0.7;0.7;;;;;;;-2.29;78.18457;935.7885;;;;
2021/03/19 02:46:15;;;;;;;1;0.8;;;;;;;-2.29;78.37305;935.8119;;;;
2021/03/19 02:48:41;;;;;;;1.6;1.2;;;;;;;-2.4;78.4834;935.7717;;;;
2021/03/19 02:51:07;;;;;;;2.5;1.2;;;;;;;-2.49;78.67773;935.7276;;;;
2021/03/19 02:53:33;;;;;;;2.8;1.6;;;;;;;-2.43;78.37891;935.6397;;;;
2021/03/19 02:55:58;;;;;;;2.4;0.7;;;;;;;-2.48;78.125;935.7266;;;;
2021/03/19 02:58:24;;;;;;;1.9;1.1;;;;;;;-2.51;77.99805;935.7202;;;;
2021/03/19 03:00:49;;;;;;;1.2;1.1;;;;;;;-2.53;77.98438;935.692;;;;
2021/03/19 03:03:17;;;;;;;7.7;1;;;;;;;-2.59;78.0293;935.734;;;;
2021/03/19 03:05:42;;;;;;;1.7;1.2;;;;;;;-2.66;78.12695;935.7064;;;;
2021/03/19 03:08:09;;;;;;;1.5;0.9;;;;;;;-2.89;78.70215;935.7096;;;;
2021/03/19 03:10:41;;;;;;;1.4;1.3;;;;;;;-3.09;79.47266;935.7003;;;;
2021/03/19 03:13:11;;;;;;;4.4;1.2;;;;;;;-3.22;80.24414;935.707;;;;
2021/03/19 03:15:38;;;;;;;1.5;1;;;;;;;-3.3;80.68164;935.7078;;;;
2021/03/19 03:18:03;;;;;;;1.7;1.3;;;;;;;-3.24;80.84863;935.6859;;;;
2021/03/19 03:20:29;;;;;;;1;0.9;;;;;;;-3.17;80.67285;935.5877;;;;
2021/03/19 03:22:55;;;;;;;1.9;1.3;;;;;;;-3.12;80.51758;935.6333;;;;
2021/03/19 03:25:26;;;;;;;1.1;0.9;;;;;;;-2.99;80.07715;935.6804;;;;
2021/03/19 03:27:59;;;;;;;3.8;1.8;;;;;;;-2.87;79.69043;935.7484;;;;
2021/03/19 03:30:31;;;;;;;3.6;1.4;;;;;;;-2.83;79.31055;935.7491;;;;
2021/03/19 03:33:03;;;;;;;1.2;1;;;;;;;-2.82;79.09375;935.736;;;;
2021/03/19 03:35:41;;;;;;;1;0.9;;;;;;;-2.72;78.66797;935.6736;;;;
2021/03/19 03:38:14;;;;;;;1.2;1.1;;;;;;;-2.68;78.13477;935.8069;;;;
2021/03/19 03:40:43;;;;;;;0.7;0.7;;;;;;;-2.72;77.87305;935.8306;;;;
2021/03/19 03:43:15;;;;;;;2.3;1.5;;;;;;;-2.74;77.87891;935.7537;;;;
2021/03/19 03:45:41;;;;;;;2.7;1.2;;;;;;;-2.7;77.43164;935.7488;;;;
2021/03/19 03:48:07;;;;;;;4.2;1.3;;;;;;;-2.67;77.5498;935.717;;;;
2021/03/19 03:50:41;;;;;;;1.1;1;;;;;;;-2.67;77.31641;935.6772;;;;
2021/03/19 03:53:13;;;;;;;1.1;1;;;;;;;-3.01;77.66309;935.5677;;;;
2021/03/19 03:55:42;;;;;;;1;0.9;;;;;;;-3.18;78.25195;935.6871;;;;
2021/03/19 03:58:08;;;;;;;2.5;1.4;;;;;;;-3.27;78.45605;935.6359;;;;
2021/03/19 04:02:49;;;;;;;4;1;;;;;;;-3.24;78.06348;935.618;;;;
2021/03/19 04:05:15;;;;;;;0.9;0.8;;;;;;;-3.29;78.25391;935.6862;;;;
2021/03/19 04:07:40;;;;;;;1.8;1.1;;;;;;;-3.39;78.4541;935.6241;;;;
2021/03/19 04:10:05;;;;;;;2.5;1.2;;;;;;;-3.4;78.54102;935.6415;;;;
2021/03/19 04:12:30;;;;;;;1.3;0.8;;;;;;;-3.48;78.79297;935.6793;;;;
2021/03/19 04:15:00;;;;;;;1.5;1.4;;;;;;;-3.54;79.13477;935.7067;;;;
2021/03/19 04:17:30;;;;;;;1.3;1.2;;;;;;;-3.64;79.65527;935.6297;;;;
2021/03/19 04:19:56;;;;;;;2.3;1.4;;;;;;;-3.74;80.26563;935.7467;;;;
2021/03/19 04:22:23;;;;;;;0.9;0.8;;;;;;;-3.84;80.83105;935.6886;;;;
2021/03/19 04:24:56;;;;;;;1.4;1.3;;;;;;;-3.72;80.83398;935.6682;;;;
2021/03/19 04:27:21;;;;;;;2.1;1.5;;;;;;;-3.76;80.74805;935.6437;;;;
2021/03/19 04:29:46;;;;;;;1.5;1.2;;;;;;;-3.7;80.60352;935.613;;;;
2021/03/19 04:32:18;;;;;;;5.2;1.3;;;;;;;-3.63;80.26367;935.5485;;;;
2021/03/19 04:34:50;;;;;;;4.5;1.4;;;;;;;-3.75;80;935.5452;;;;
2021/03/19 04:37:20;;;;;;;2.1;1.6;;;;;;;-3.83;80.25;935.5411;;;;
2021/03/19 04:39:51;;;;;;;2.3;1.8;;;;;;;-3.95;80.52148;935.5748;;;;
2021/03/19 04:42:22;;;;;;;1.6;1.1;;;;;;;-4.02;80.95117;935.478;;;;
2021/03/19 04:44:53;;;;;;;2.4;1.3;;;;;;;-4.01;81.11816;935.5438;;;;
2021/03/19 04:47:23;;;;;;;1.3;1.1;;;;;;;-4.12;81.40723;935.5516;;;;
2021/03/19 04:49:58;;;;;;;1.4;1.3;;;;;;;-4.16;81.5625;935.5483;;;;
2021/03/19 04:52:29;;;;;;;1.4;1.1;;;;;;;-4.15;81.6123;935.5206;;;;
2021/03/19 04:55:03;;;;;;;3.2;1.6;;;;;;;-3.99;81.10156;935.5876;;;;
2021/03/19 04:57:33;;;;;;;1.3;1.2;;;;;;;-3.88;80.59082;935.5089;;;;
2021/03/19 05:00:02;;;;;;;1.6;0.9;;;;;;;-3.9;79.90332;935.5731;;;;
2021/03/19 05:02:27;;;;;;;1.1;1;;;;;;;-3.88;79.49805;935.5845;;;;
2021/03/19 05:04:52;;;;;;;1.2;1.1;;;;;;;-3.8;79.01855;935.6122;;;;
2021/03/19 05:07:20;;;;;;;1.6;1.1;;;;;;;-3.81;78.78516;935.6649;;;;
2021/03/19 05:09:45;;;;;;;3;1;;;;;;;-3.87;78.66309;935.6436;;;;
2021/03/19 05:12:10;;;;;;;4.8;1.4;;;;;;;-3.97;78.97363;935.6622;;;;
2021/03/19 05:14:40;;;;;;;1;0.9;;;;;;;-4.14;79.35059;935.6692;;;;
2021/03/19 05:17:17;;;;;;;2.5;1.4;;;;;;;-4.22;79.52441;935.7017;;;;
2021/03/19 05:19:45;;;;;;;1.8;1.3;;;;;;;-4.25;79.59473;935.7614;;;;
2021/03/19 05:22:13;;;;;;;1.1;0.9;;;;;;;-4.26;79.70313;935.8035;;;;
2021/03/19 05:24:43;;;;;;;1.7;1.2;;;;;;;-4.29;79.73145;935.8236;;;;
2021/03/19 05:27:13;;;;;;;3.5;1.6;;;;;;;-4.21;79.70117;935.808;;;;
2021/03/19 05:29:47;;;;;;;1.4;1.2;;;;;;;-4.1;79.29297;935.8506;;;;
2021/03/19 05:32:17;;;;;;;2.3;1.4;;;;;;;-3.94;78.74805;935.8904;;;;
2021/03/19 05:34:50;;;;;;;1.8;1.1;;;;;;;-3.87;78.09766;935.9139;;;;
2021/03/19 05:37:22;;;;;;;1.1;1;;;;;;;-3.94;78.00879;935.9355;;;;
2021/03/19 05:39:47;;;;;;;2;0.8;;;;;;;-4.1;78.26758;935.8809;;;;
2021/03/19 05:42:12;;;;;;;6.9;2.6;;;;;;;-4.07;78.5498;936.0064;;;;
2021/03/19 05:44:39;;;;;;;1.3;1.2;;;;;;;-4.11;78.61719;936.0229;;;;
2021/03/19 05:47:05;;;;;;;1.3;1.1;;;;;;;-4.05;78.76074;936.0829;;;;
2021/03/19 05:49:34;;;;;;;2.4;1.9;;;;;;;-4.04;78.6416;936.1033;;;;
2021/03/19 05:52:06;;;;;;;6.9;2.7;;;;;;;-3.99;78.66309;936.162;;;;
2021/03/19 05:54:31;;;;;;;5.1;2.6;;;;;;;-3.87;78.44238;936.2056;;;;
2021/03/19 05:56:56;;;;;;;3.8;1.8;;;;;;;-3.83;78.0293;936.293;;;;
2021/03/19 05:59:21;;;;;;;2;1.4;;;;;;;-3.81;78.02344;936.2522;;;;
2021/03/19 06:01:48;;;;;;;3.5;1.9;;;;;;;-3.69;77.73633;936.2553;;;;
2021/03/19 06:04:14;;;;;;;4.2;1.8;;;;;;;-3.64;77.55664;936.2682;;;;
2021/03/19 06:06:39;;;;;;;3.2;2;;;;;;;-3.6;77.07715;936.3107;;;;
2021/03/19 06:09:04;;;;;;;2.7;1.5;;;;;;;-3.57;76.56641;936.3035;;;;
2021/03/19 06:11:29;;;;;;;1.9;1.4;;;;;;;-3.3;76.10645;936.3541;;;;
2021/03/19 06:13:57;;;;;;;1.9;1.6;;;;;;;-2.5;73.89355;936.329;;;;
2021/03/19 06:16:30;;;;;;;2;1.7;;;;;;;-1.78;70.91309;936.3338;;;;
2021/03/19 06:18:57;;;;;;;4.9;1.6;;;;;;;-1.23;67.96484;936.2946;;;;
2021/03/19 06:21:23;;;;;;;2.3;1.6;;;;;;;-1;66.16602;936.2653;;;;
2021/03/19 06:23:48;;;;;;;3.4;1.9;;;;;;;-1.48;66.72363;936.3167;;;;
2021/03/19 06:26:13;;;;;;;4.1;2.6;;;;;;;-1.85;68.09668;936.2608;;;;
2021/03/19 06:28:43;;;;;;;3.9;2.3;;;;;;;-1.95;68.8457;936.3286;;;;
2021/03/19 06:31:08;;;;;;;3.2;2;;;;;;;-1.96;69.19727;936.4052;;;;
2021/03/19 06:33:33;;;;;;;4.4;2;;;;;;;-2.17;69.48438;936.4549;;;;
2021/03/19 06:36:00;;;;;;;3.8;1.9;;;;;;;-2.18;70.45801;936.377;;;;
2021/03/19 06:38:29;;;;;;;4.8;2.1;;;;;;;-2.51;69.82813;936.4744;;;;
2021/03/19 06:40:54;;;;;;;1.9;1.3;;;;;;;-2.84;71.17773;936.5151;;;;
2021/03/19 06:43:22;;;;;;;3.2;1.9;;;;;;;-2.99;72.0918;936.4735;;;;
2021/03/19 06:45:47;;;;;;;4.8;2.6;;;;;;;-2.91;72.4043;936.5416;;;;
2021/03/19 06:48:12;;;;;;;3.5;2.1;;;;;;;-2.72;71.6416;936.5833;;;;
2021/03/19 06:50:40;;;;;;;4.7;2;;;;;;;-2.32;71.24414;936.4998;;;;
2021/03/19 06:53:05;;;;;;;4.2;1.3;;;;;;;-2.35;70.20801;936.5066;;;;
2021/03/19 06:55:34;;;;;;;4;3.4;;;;;;;-2.18;70.24805;936.5439;;;;
2021/03/19 06:57:59;;;;;;;5.1;2.2;;;;;;;-2.19;69.57227;936.5826;;;;
2021/03/19 07:00:26;;;;;;;3;1.5;;;;;;;-1.91;68.53027;936.5376;;;;
2021/03/19 07:02:51;;;;;;;2.8;1.1;;;;;;;-2;67.81641;936.5952;;;;
2021/03/19 07:05:16;;;;;;;1.8;1.4;;;;;;;-2.22;68.54688;936.5814;;;;
2021/03/19 07:07:44;;;;;;;5.2;1.9;;;;;;;-2.1;68.90918;936.5754;;;;
2021/03/19 07:10:17;;;;;;;2.5;1.5;;;;;;;-1.86;67.7959;936.5933;;;;
2021/03/19 07:12:43;;;;;;;1.4;1.2;;;;;;;-1.9;68.20996;936.5444;;;;
2021/03/19 07:15:10;;;;;;;3.6;1.1;;;;;;;-1.94;68.21484;936.5619;;;;
2021/03/19 07:17:35;;;;;;;1.1;1;;;;;;;-1.78;68.66309;936.5704;;;;
2021/03/19 07:20:01;;;;;;;1.5;1.1;;;;;;;-1.71;67.96387;936.5676;;;;
2021/03/19 07:22:31;;;;;;;3.2;2.1;;;;;;;-1.8;68.07031;936.5656;;;;
2021/03/19 07:25:05;;;;;;;1.6;1.3;;;;;;;-1.91;67.78809;936.551;;;;
2021/03/19 07:27:30;;;;;;;2.4;1.5;;;;;;;-2.09;68.32324;936.551;;;;
2021/03/19 07:29:57;;;;;;;3.9;2.2;;;;;;;-2.24;68.6748;936.5457;;;;
2021/03/19 07:32:23;;;;;;;2.9;1.5;;;;;;;-2.06;69.60352;936.5887;;;;
2021/03/19 07:34:48;;;;;;;2;1.2;;;;;;;-1.68;69.84473;936.5975;;;;
2021/03/19 07:37:15;;;;;;;4.8;1;;;;;;;-1.41;69.13281;936.5934;;;;
2021/03/19 07:39:41;;;;;;;3.4;1.6;;;;;;;-1.1;67.00586;936.5457;;;;
2021/03/19 07:42:06;;;;;;;3;1.9;;;;;;;-0.64;67.19141;936.5602;;;;
2021/03/19 07:44:35;;;;;;;1.5;1.2;;;;;;;-0.65;64.53223;936.4852;;;;
2021/03/19 07:46:57;;;;;;;2.7;1.2;;;;;;;-0.58;63.6416;936.5304;;;;
2021/03/19 07:49:23;;;;;;;2.6;1.7;;;;;;;-0.24;63.46973;936.5075;;;;
2021/03/19 07:51:48;;;;;;;2.8;1.9;;;;;;;0.11;62.12988;936.4766;;;;
2021/03/19 07:54:13;;;;;;;1.9;1.5;;;;;;;0.03;61.34961;936.4601;;;;
2021/03/19 07:56:43;;;;;;;2.9;1.6;;;;;;;-0.03;62.5;936.4786;;;;
2021/03/19 07:59:12;;;;;;;1.5;1.2;;;;;;;0.59;61.4082;936.4011;;;;
2021/03/19 08:01:38;;;;;;;1.2;1.1;;;;;;;1.23;59.76953;936.3915;;;;
2021/03/19 08:04:04;;;;;;;1.9;1.4;;;;;;;1.57;57.23438;936.265;;;;
2021/03/19 08:06:29;;;;;;;1.8;1.3;;;;;;;1.02;57.22656;936.3856;;;;
2021/03/19 08:08:54;;;;;;;8.5;2.6;;;;;;;0.69;59.35742;936.3811;;;;
2021/03/19 08:11:21;;;;;;;1.3;1.2;;;;;;;1.09;60.0625;936.361;;;;
2021/03/19 08:13:47;;;;;;;4.2;1.5;;;;;;;1.77;56.93848;936.3147;;;;
2021/03/19 08:16:18;;;;;;;2;1.2;;;;;;;1.68;56.56641;936.271;;;;
2021/03/19 08:18:43;;;;;;;2.5;1.2;;;;;;;1.32;57.81445;936.3079;;;;
2021/03/19 08:21:08;;;;;;;2.3;1.2;;;;;;;1.64;58.29492;936.2365;;;;
2021/03/19 08:23:33;;;;;;;2.6;1.9;;;;;;;2.16;57.34766;936.3064;;;;
2021/03/19 08:25:58;;;;;;;1.8;1.1;;;;;;;2.97;55.62891;936.2391;;;;
2021/03/19 08:28:27;;;;;;;1.8;1;;;;;;;3.41;51.70996;936.2506;;;;
2021/03/19 08:30:52;;;;;;;1.5;1.1;;;;;;;3.14;50.50098;936.2484;;;;
2021/03/19 08:33:17;;;;;;;1.5;1;;;;;;;4.19;48.09473;936.2555;;;;
2021/03/19 08:35:43;;;;;;;0.8;0.8;;;;;;;5.33;45.85352;936.2556;;;;
2021/03/19 08:38:08;;;;;;;1.8;0.7;;;;;;;6.79;43.07813;936.1845;;;;
2021/03/19 08:40:37;;;;;;;0.8;0.7;;;;;;;7.55;40.02637;936.1801;;;;
2021/03/19 08:43:02;;;;;;;4.3;0.6;;;;;;;6.89;41.17578;936.1567;;;;
2021/03/19 08:45:27;;;;;;;2.7;1;;;;;;;7.09;40.78711;936.1766;;;;
2021/03/19 08:47:54;;;;;;;3.5;1.3;;;;;;;5.95;41.72852;936.1802;;;;
2021/03/19 08:50:18;;;;;;;2.6;1.3;;;;;;;4.87;44.83594;936.1958;;;;
2021/03/19 08:52:43;;;;;;;1.8;0.6;;;;;;;5.39;46.0293;936.1522;;;;
2021/03/19 08:55:11;;;;;;;0.5;0.5;;;;;;;6.66;44.24219;936.0751;;;;
2021/03/19 08:57:40;;;;;;;1;0.6;;;;;;;6.85;44.17188;936.1314;;;;
2021/03/19 09:00:05;;;;;;;1.9;0.7;;;;;;;7.07;40.5127;936.1003;;;;
2021/03/19 09:02:30;;;;;;;0.7;0.6;;;;;;;8.19;40.73242;936.1317;;;;
2021/03/19 09:04:55;;;;;;;0.8;0.5;;;;;;;8.63;37.20508;936.0945;;;;
2021/03/19 09:07:20;;;;;;;0.6;0.6;;;;;;;8.05;38.1543;936.0424;;;;
2021/03/19 09:09:46;;;;;;;1.4;1;;;;;;;7.05;41.36035;936.0754;;;;
2021/03/19 09:12:11;;;;;;;0.7;0.5;;;;;;;6.84;41.44238;936.0419;;;;
2021/03/19 09:14:36;;;;;;;0.4;0.4;;;;;;;6.62;42.48535;936.0933;;;;
2021/03/19 09:17:08;;;;;;;2.8;1.9;;;;;;;5.43;42.64941;936.1384;;;;
2021/03/19 09:19:40;;;;;;;7.4;3.9;;;;;;;5.1;45.1875;936.1264;;;;
2021/03/19 09:22:01;;;;;;;5.2;1.9;;;;;;;5.24;44.24219;936.1514;;;;
2021/03/19 09:24:29;;;;;;;2.3;1.6;;;;;;;5.28;44.22363;936.1516;;;;
2021/03/19 09:26:54;;;;;;;1.5;1;;;;;;;6.13;44.44727;936.0842;;;;
2021/03/19 09:29:19;;;;;;;0.7;0.6;;;;;;;6.88;42.57813;936.0552;;;;
2021/03/19 09:31:44;;;;;;;0.3;0.3;;;;;;;7.74;40.40625;936.0226;;;;
2021/03/19 09:34:12;;;;;;;0.8;0.5;;;;;;;8.61;38.97559;936.0359;;;;
2021/03/19 09:36:39;;;;;;;0.4;0.4;;;;;;;8.95;37.72168;935.9519;;;;
2021/03/19 09:39:04;;;;;;;1.1;1;;;;;;;9.33;37.20898;936.0717;;;;
2021/03/19 09:41:30;;;;;;;1.7;0.7;;;;;;;9.54;35.85938;936.036;;;;
2021/03/19 09:43:55;;;;;;;0.8;0.6;;;;;;;9.77;35.87793;936.032;;;;
2021/03/19 09:46:20;;;;;;;1;0.6;;;;;;;9.79;36.05078;936.0457;;;;
2021/03/19 09:48:46;;;;;;;0.9;0.6;;;;;;;10.06;35.45801;936.0031;;;;
2021/03/19 09:51:10;;;;;;;0.6;0.6;;;;;;;10.27;35.57813;936.0092;;;;
2021/03/19 09:53:38;;;;;;;0.6;0.5;;;;;;;10.84;34.32227;935.9408;;;;
2021/03/19 09:56:02;;;;;;;0.4;0.3;;;;;;;10.69;34.07031;935.9239;;;;
2021/03/19 09:58:28;;;;;;;1.1;0.8;;;;;;;11.51;31.9834;935.9016;;;;
2021/03/19 10:00:53;;;;;;;0.8;0.7;;;;;;;11.99;31.49219;935.9595;;;;
2021/03/19 10:03:18;;;;;;;0.6;0.6;;;;;;;12.29;31.43457;935.9336;;;;
2021/03/19 10:05:46;;;;;;;1.2;0.8;;;;;;;13.66;30.01563;935.9238;;;;
2021/03/19 10:08:09;;;;;;;1.3;0.8;;;;;;;14.36;29.1875;935.8601;;;;
2021/03/19 10:10:38;;;;;;;0.9;0.8;;;;;;;14.91;27.36816;935.8926;;;;
2021/03/19 10:13:05;;;;;;;0.8;0.7;;;;;;;15.08;27.30859;935.8597;;;;
2021/03/19 10:15:39;;;;;;;1.3;0.9;;;;;;;14.88;28.03418;935.9283;;;;
2021/03/19 10:18:04;;;;;;;1.2;0.9;;;;;;;13.9;29.65137;935.9353;;;;
2021/03/19 10:20:29;;;;;;;1.1;0.9;;;;;;;12.92;30.96289;935.9547;;;;
2021/03/19 10:22:54;;;;;;;1;0.8;;;;;;;11.96;33.18555;935.9268;;;;
2021/03/19 10:25:21;;;;;;;0.4;0.3;;;;;;;11.33;34.09766;935.8554;;;;
2021/03/19 10:27:47;;;;;;;1.3;0.5;;;;;;;11.21;34.21484;935.883;;;;
2021/03/19 10:30:14;;;;;;;0.4;0.4;;;;;;;11.87;32.35352;935.8342;;;;
2021/03/19 10:32:39;;;;;;;1;0.5;;;;;;;11.7;33.46289;935.8175;;;;
2021/03/19 10:35:07;;;;;;;0.6;0.5;;;;;;;12.05;32.95215;935.8936;;;;
2021/03/19 10:37:33;;;;;;;1;0.6;;;;;;;12.42;30.92676;935.8667;;;;
2021/03/19 10:39:57;;;;;;;0.9;0.6;;;;;;;12.26;32.03906;935.8714;;;;
2021/03/19 10:42:22;;;;;;;1.4;0.6;;;;;;;12.14;31.84668;935.9063;;;;
2021/03/19 10:44:47;;;;;;;1.6;1.2;;;;;;;11.83;33.25488;935.8111;;;;
2021/03/19 10:47:12;;;;;;;2;1;;;;;;;11.39;34.78906;935.8229;;;;
2021/03/19 10:49:37;;;;;;;0.9;0.8;;;;;;;11.32;34.86328;935.8825;;;;
2021/03/19 10:52:04;;;;;;;1.2;0.7;;;;;;;11.33;34.24707;935.8777;;;;
2021/03/19 10:54:33;;;;;;;1.4;1;;;;;;;11.87;34.17578;935.8948;;;;
2021/03/19 10:56:55;;;;;;;2.1;1.2;;;;;;;11.06;35.23242;935.9037;;;;
2021/03/19 10:59:22;;;;;;;1.3;0.9;;;;;;;11.32;35.40137;935.9367;;;;
2021/03/19 11:01:47;;;;;;;1.9;1.2;;;;;;;11.51;35.32617;935.9031;;;;
2021/03/19 11:04:14;;;;;;;1.3;1.1;;;;;;;10.6;37.4209;935.9191;;;;
2021/03/19 11:06:39;;;;;;;1.5;1.2;;;;;;;10.3;37.50977;935.9012;;;;
2021/03/19 11:09:04;;;;;;;1.5;1.1;;;;;;;10.47;37.83203;935.9749;;;;
2021/03/19 11:11:38;;;;;;;2.8;1.4;;;;;;;9.95;38.69824;935.9653;;;;
2021/03/19 11:14:03;;;;;;;0.9;0.9;;;;;;;9.44;39.62109;935.9373;;;;
2021/03/19 11:16:42;;;;;;;2.5;1.3;;;;;;;9.57;39.59961;935.9553;;;;
2021/03/19 11:19:08;;;;;;;1.2;1;;;;;;;9;40.58203;935.9899;;;;
2021/03/19 11:21:42;;;;;;;1;0.6;;;;;;;9.08;40.30469;935.995;;;;
2021/03/19 11:24:10;;;;;;;5.8;1.4;;;;;;;8.97;41.52344;936.0236;;;;
2021/03/19 11:26:35;;;;;;;2;1.2;;;;;;;9.33;39.74805;935.9836;;;;
2021/03/19 11:29:00;;;;;;;1.6;0.8;;;;;;;9.58;39.29297;935.8488;;;;
2021/03/19 11:31:30;;;;;;;1.7;1.1;;;;;;;9.44;39.53027;935.9644;;;;
2021/03/19 11:33:55;;;;;;;1;0.9;;;;;;;8.73;40.13574;935.9918;;;;
2021/03/19 11:36:27;;;;;;;1.7;1.5;;;;;;;8.76;40.94629;935.9398;;;;
2021/03/19 11:38:54;;;;;;;1.3;0.9;;;;;;;8.9;39.74219;935.8964;;;;
2021/03/19 11:41:21;;;;;;;1;0.8;;;;;;;8.76;41.01465;935.9167;;;;
2021/03/19 11:43:51;;;;;;;1.4;1;;;;;;;9.84;38.42773;935.8842;;;;
2021/03/19 11:46:23;;;;;;;3.3;1;;;;;;;10.33;37.45508;935.8425;;;;
2021/03/19 11:48:48;;;;;;;0.8;0.7;;;;;;;11.48;35.86035;935.801;;;;
2021/03/19 11:51:14;;;;;;;1.3;0.9;;;;;;;12.37;32.96387;935.7324;;;;
2021/03/19 11:53:39;;;;;;;1.3;1;;;;;;;13.33;32.25586;935.7651;;;;
2021/03/19 11:56:04;;;;;;;1;0.7;;;;;;;14.4;30.36523;935.6964;;;;
2021/03/19 11:58:29;;;;;;;1.6;0.9;;;;;;;15;29.91113;935.603;;;;
2021/03/19 12:00:59;;;;;;;0.9;0.8;;;;;;;15.62;28.55664;935.6758;;;;
2021/03/19 12:03:27;;;;;;;2.1;1.1;;;;;;;16.36;28.08301;935.6347;;;;
2021/03/19 12:05:53;;;;;;;3.8;1.1;;;;;;;17.14;27.65918;935.6425;;;;
2021/03/19 12:08:18;;;;;;;2;1.1;;;;;;;18.17;25.25977;935.533;;;;
2021/03/19 12:10:45;;;;;;;1.8;0.8;;;;;;;17.79;24.9707;935.4938;;;;
2021/03/19 12:13:10;;;;;;;2;1.3;;;;;;;17.92;25.97656;935.5499;;;;
2021/03/19 12:15:40;;;;;;;0.8;0.7;;;;;;;17.73;24.9668;935.517;;;;
2021/03/19 12:18:07;;;;;;;2.4;0.9;;;;;;;17.51;25.58203;935.4737;;;;
2021/03/19 12:20:32;;;;;;;1.9;0.5;;;;;;;16.86;26.5625;935.553;;;;
2021/03/19 12:22:57;;;;;;;0.7;0.6;;;;;;;16.79;25.80664;935.5369;;;;
2021/03/19 12:25:22;;;;;;;1.3;0.9;;;;;;;15.8;28.00195;935.4813;;;;
2021/03/19 12:27:47;;;;;;;0.9;0.8;;;;;;;15.18;28.63086;935.5168;;;;
2021/03/19 12:30:15;;;;;;;1.6;1;;;;;;;14.02;29.71777;935.5016;;;;
2021/03/19 12:32:40;;;;;;;1.2;1;;;;;;;13.17;31.45215;935.5319;;;;
2021/03/19 12:35:09;;;;;;;2.1;0.8;;;;;;;12.8;31.75781;935.4258;;;;
2021/03/19 12:37:38;;;;;;;1.5;0.9;;;;;;;12.49;32.34277;935.52;;;;
2021/03/19 12:40:03;;;;;;;0.7;0.6;;;;;;;11.86;34.15137;935.5279;;;;
2021/03/19 12:42:28;;;;;;;1.4;0.9;;;;;;;10.58;35.79785;935.5488;;;;
2021/03/19 12:44:54;;;;;;;1.3;1.2;;;;;;;10.08;37.2959;935.5896;;;;
2021/03/19 12:47:20;;;;;;;1.8;1.1;;;;;;;9.23;39.55664;935.5401;;;;
2021/03/19 12:49:46;;;;;;;1.3;1.2;;;;;;;9.05;40.4043;935.6277;;;;
2021/03/19 12:52:11;;;;;;;1.5;1.3;;;;;;;8.53;41.45801;935.6057;;;;
2021/03/19 12:54:39;;;;;;;1;1;;;;;;;8.52;41.55957;935.6096;;;;
2021/03/19 12:57:04;;;;;;;1.3;0.9;;;;;;;8.23;42.31641;935.6226;;;;
2021/03/19 12:59:30;;;;;;;1.7;1.3;;;;;;;8.02;44.00879;935.6661;;;;
2021/03/19 13:01:57;;;;;;;1.7;1.1;;;;;;;7.92;44.15723;935.616;;;;
2021/03/19 13:04:21;;;;;;;1.2;1.1;;;;;;;7.65;45.19531;935.5995;;;;
2021/03/19 13:06:46;;;;;;;2.6;1.2;;;;;;;8.2;44.02734;935.6727;;;;
2021/03/19 13:09:14;;;;;;;5.8;1.1;;;;;;;8.58;43.44043;935.6841;;;;
2021/03/19 13:11:39;;;;;;;1;0.9;;;;;;;8.38;42.76074;935.6939;;;;
2021/03/19 13:14:05;;;;;;;2.5;1.4;;;;;;;8.96;44.00195;935.7018;;;;
2021/03/19 13:16:44;;;;;;;1.4;1.3;;;;;;;9.87;42.37305;935.6331;;;;
2021/03/19 13:19:07;;;;;;;2;1.1;;;;;;;10.89;40.24512;935.7059;;;;
2021/03/19 13:21:31;;;;;;;2.5;1.5;;;;;;;11.09;40.12695;935.6919;;;;
2021/03/19 13:23:56;;;;;;;2;1.6;;;;;;;11.96;38.16895;935.7584;;;;
2021/03/19 13:26:22;;;;;;;1.4;1;;;;;;;12.89;35.9668;935.7087;;;;
2021/03/19 13:28:47;;;;;;;2.3;1.3;;;;;;;12.88;36.73438;935.8125;;;;
2021/03/19 13:31:16;;;;;;;6.6;2.7;;;;;;;12.02;37.29199;935.7963;;;;
2021/03/19 13:33:40;;;;;;;2.4;1.7;;;;;;;10.69;39.66699;935.7463;;;;
2021/03/19 13:36:08;;;;;;;2.2;1.5;;;;;;;10.1;41.06152;935.8444;;;;
2021/03/19 13:38:31;;;;;;;1.9;1.2;;;;;;;9.14;42.56445;935.8653;;;;
2021/03/19 13:40:59;;;;;;;2.1;1.6;;;;;;;7.97;46.14746;935.883;;;;
2021/03/19 13:43:24;;;;;;;2.3;1.3;;;;;;;7.62;46.47461;935.8052;;;;
2021/03/19 13:45:51;;;;;;;1.5;1.2;;;;;;;7.79;46.83203;935.9196;;;;
2021/03/19 13:48:16;;;;;;;1.1;1;;;;;;;7.45;46.16113;935.8583;;;;
2021/03/19 13:50:43;;;;;;;3.2;1.6;;;;;;;7.59;46.30078;935.8614;;;;
2021/03/19 13:53:08;;;;;;;2;1.4;;;;;;;7.56;46.41016;935.7555;;;;
2021/03/19 13:55:36;;;;;;;1.5;0.9;;;;;;;7.07;46.53809;935.7449;;;;
2021/03/19 13:58:01;;;;;;;2.2;1.1;;;;;;;7.31;46.78027;935.8105;;;;
2021/03/19 14:00:26;;;;;;;4.3;1.2;;;;;;;7.14;47.44238;935.842;;;;
2021/03/19 14:02:51;;;;;;;1.9;1.6;;;;;;;7.18;47.64941;935.838;;;;
2021/03/19 14:05:16;;;;;;;1.7;1.4;;;;;;;7.34;46.72656;935.7823;;;;
2021/03/19 14:07:41;;;;;;;1.8;1.5;;;;;;;7.06;49.57227;935.8871;;;;
2021/03/19 14:10:13;;;;;;;2.9;1.4;;;;;;;7.04;50.19336;935.8456;;;;
2021/03/19 14:12:38;;;;;;;2.1;1.5;;;;;;;6.43;51.89746;935.8848;;;;
2021/03/19 14:15:03;;;;;;;0.9;0.8;;;;;;;5.97;53.21973;935.916;;;;
2021/03/19 14:17:28;;;;;;;1.9;1.2;;;;;;;5.71;52.46582;935.8668;;;;
2021/03/19 14:19:53;;;;;;;1.9;1.1;;;;;;;5.39;55.37012;935.9927;;;;
2021/03/19 14:22:18;;;;;;;1;0.7;;;;;;;5.15;56.95215;936.0297;;;;
2021/03/19 14:24:43;;;;;;;0.9;0.7;;;;;;;5.06;57.76172;936.0186;;;;
2021/03/19 14:27:09;;;;;;;1.1;0.8;;;;;;;4.8;58.68555;936.0111;;;;
2021/03/19 14:29:35;;;;;;;1;0.8;;;;;;;4.63;59.41602;936.0247;;;;
2021/03/19 14:32:01;;;;;;;1.1;0.9;;;;;;;4.34;61.12012;936.1373;;;;